Time;durP1;ratioP1;P1;durP2;ratioP2;P2;SDS_P1;SDS_P2;PMS_P1;PMS_P2;Temp;Humidity;BMP_temperature;BMP_pressure;BME280_temperature;BME280_humidity;BME280_pressure;Samples;Min_cycle;Max_cycle;Signal;HPM_P1;HPM_P2
2021/03/24 00:00:24;;;;;;;19.95;9.32;;;;;;;0.16;79.05;97513.13;4981290;28;20051;-61
2021/03/24 00:02:49;;;;;;;23.20;10.23;;;;;;;0.08;78.94;97511.81;4985030;28;20078;-61
2021/03/24 00:05:17;;;;;;;19.65;10.40;;;;;;;0.11;79.49;97502.38;4979595;28;20077;-60
2021/03/24 00:07:44;;;;;;;17.23;8.82;;;;;;;0.09;79.59;97508.06;4981995;28;20483;-60
2021/03/24 00:10:11;;;;;;;18.25;10.48;;;;;;;0.12;79.51;97512.88;4957688;28;20039;-59
2021/03/24 00:12:38;;;;;;;20.38;9.68;;;;;;;0.16;79.47;97518.50;4981175;28;20074;-59
2021/03/24 00:15:06;;;;;;;20.48;10.68;;;;;;;0.23;80.08;97515.50;4977060;28;20487;-62
2021/03/24 00:17:32;;;;;;;27.45;9.63;;;;;;;0.25;79.79;97524.13;4971964;28;20654;-59
2021/03/24 00:19:57;;;;;;;22.25;10.52;;;;;;;0.22;80.28;97525.50;4979245;28;20057;-61
2021/03/24 00:22:23;;;;;;;19.25;10.45;;;;;;;0.08;80.63;97517.22;4966734;28;20646;-61
2021/03/24 00:24:48;;;;;;;22.55;10.63;;;;;;;0.03;81.22;97527.22;4982487;28;20485;-62
2021/03/24 00:27:14;;;;;;;20.85;10.38;;;;;;;-0.02;81.25;97520.78;4981145;28;20043;-62
2021/03/24 00:29:39;;;;;;;18.42;10.07;;;;;;;-0.02;81.50;97519.94;4984772;28;20054;-60
2021/03/24 00:32:05;;;;;;;19.13;11.23;;;;;;;-0.04;81.18;97522.13;4979174;28;20558;-59
2021/03/24 00:34:31;;;;;;;20.02;10.35;;;;;;;-0.05;81.47;97524.03;4982679;28;20077;-62
2021/03/24 00:36:57;;;;;;;21.02;9.98;;;;;;;-0.15;81.58;97512.50;4979158;28;20064;-61
2021/03/24 00:39:22;;;;;;;21.63;9.38;;;;;;;-0.18;81.92;97511.16;4973201;28;20898;-61
2021/03/24 00:41:48;;;;;;;24.95;10.35;;;;;;;-0.21;81.72;97504.44;4983046;28;20052;-58
2021/03/24 00:44:13;;;;;;;21.60;10.70;;;;;;;-0.20;81.52;97505.22;4972827;28;20050;-62
2021/03/24 00:46:39;;;;;;;18.42;8.85;;;;;;;-0.23;81.31;97498.53;4980552;28;20042;-60
2021/03/24 00:49:04;;;;;;;18.98;9.45;;;;;;;-0.30;81.52;97489.94;4979030;28;20133;-63
2021/03/24 00:51:30;;;;;;;18.48;8.98;;;;;;;-0.31;81.42;97491.00;4946121;28;20574;-61
2021/03/24 00:53:55;;;;;;;23.83;9.77;;;;;;;-0.36;81.33;97498.31;4975894;28;20051;-60
2021/03/24 00:56:22;;;;;;;19.15;10.32;;;;;;;-0.42;81.43;97501.03;4961493;28;20046;-62
2021/03/24 00:58:48;;;;;;;26.95;12.10;;;;;;;-0.41;81.81;97499.97;4984589;28;20046;-62
2021/03/24 01:01:13;;;;;;;19.55;10.38;;;;;;;-0.30;82.27;97499.91;4978562;28;20722;-62
2021/03/24 01:03:39;;;;;;;21.38;10.95;;;;;;;-0.23;82.46;97500.44;4983904;28;20042;-62
2021/03/24 01:06:04;;;;;;;23.13;10.75;;;;;;;-0.31;82.61;97498.28;4976309;28;20053;-63
2021/03/24 01:08:30;;;;;;;19.13;10.77;;;;;;;-0.30;82.64;97492.63;4979811;28;20161;-63
2021/03/24 01:10:56;;;;;;;22.40;11.65;;;;;;;-0.34;82.73;97488.06;4984296;28;20050;-61
2021/03/24 01:13:24;;;;;;;22.08;10.90;;;;;;;-0.30;82.91;97491.84;4977861;28;20794;-63
2021/03/24 01:15:49;;;;;;;21.38;11.20;;;;;;;-0.24;82.86;97485.34;4975605;28;20108;-61
2021/03/24 01:18:16;;;;;;;25.33;10.50;;;;;;;-0.30;82.51;97478.38;4975791;28;20574;-59
2021/03/24 01:20:43;;;;;;;25.23;10.63;;;;;;;-0.36;82.62;97485.69;4983106;28;20046;-62
2021/03/24 01:23:10;;;;;;;19.60;9.50;;;;;;;-0.39;82.41;97483.53;4969145;28;20465;-61
2021/03/24 01:25:35;;;;;;;18.33;10.35;;;;;;;-0.48;82.78;97482.50;4985933;28;20050;-62
2021/03/24 01:28:04;;;;;;;18.65;9.95;;;;;;;-0.51;82.75;97489.22;4983618;28;20053;-62
2021/03/24 01:30:31;;;;;;;22.73;11.38;;;;;;;-0.54;82.64;97486.28;4982723;28;20105;-62
2021/03/24 01:32:57;;;;;;;20.35;10.32;;;;;;;-0.60;82.61;97486.28;4982645;28;20533;-61
2021/03/24 01:35:22;;;;;;;20.45;9.98;;;;;;;-0.61;82.53;97490.06;4977718;28;20149;-60
2021/03/24 01:37:48;;;;;;;20.48;9.82;;;;;;;-0.58;82.49;97488.72;4995391;28;20045;-63
2021/03/24 01:40:24;;;;;;;17.65;9.02;;;;;;;-0.55;82.62;97495.44;4978142;28;20468;-62
2021/03/24 01:42:51;;;;;;;23.63;9.88;;;;;;;-0.62;82.92;97496.53;4983183;28;20046;-63
2021/03/24 01:45:16;;;;;;;22.83;11.13;;;;;;;-0.77;82.81;97491.22;4978376;28;20153;-62
2021/03/24 01:47:43;;;;;;;26.48;11.05;;;;;;;-0.84;83.45;97491.50;4982535;28;20137;-62
2021/03/24 01:50:22;;;;;;;22.00;10.32;;;;;;;-0.83;83.12;97494.97;4978598;28;20042;-62
2021/03/24 01:52:48;;;;;;;20.20;10.88;;;;;;;-0.87;83.31;97489.34;4984098;28;20104;-62
2021/03/24 01:55:14;;;;;;;23.02;10.55;;;;;;;-0.89;83.63;97488.81;4990325;28;20073;-62
2021/03/24 01:57:44;;;;;;;23.35;10.52;;;;;;;-0.80;84.03;97481.78;4983952;28;20046;-62
2021/03/24 02:00:19;;;;;;;25.25;10.43;;;;;;;-0.71;83.97;97495.47;4994653;28;20046;-61
2021/03/24 02:02:45;;;;;;;22.00;10.57;;;;;;;-0.71;83.63;97479.34;4982310;28;20575;-61
2021/03/24 02:05:11;;;;;;;24.80;11.60;;;;;;;-0.70;83.60;97480.13;4997166;28;20203;-63
2021/03/24 02:07:48;;;;;;;21.70;10.35;;;;;;;-0.81;83.42;97484.75;5000696;28;20038;-60
2021/03/24 02:10:25;;;;;;;26.25;10.57;;;;;;;-0.83;83.55;97479.66;4995945;28;20080;-62
2021/03/24 02:13:04;;;;;;;22.48;10.52;;;;;;;-0.86;83.32;97480.19;5002389;28;20046;-62
2021/03/24 02:15:33;;;;;;;19.00;9.80;;;;;;;-0.96;83.72;97482.91;5000970;28;20053;-60
2021/03/24 02:18:01;;;;;;;25.40;10.13;;;;;;;-1.02;84.04;97481.31;5002071;28;20410;-62
2021/03/24 02:20:36;;;;;;;21.02;10.55;;;;;;;-1.05;83.75;97476.47;4963035;28;20289;-61
2021/03/24 02:23:36;;;;;;;19.13;9.93;;;;;;;-1.02;83.92;97481.31;4974634;28;20523;-63
2021/03/24 02:26:10;;;;;;;;;;;;;;;-1.25;82.74;97485.38;4925059;28;20053;-63
2021/03/24 02:28:36;;;;;;;23.27;10.35;;;;;;;-1.60;83.92;97479.75;4981083;28;19914;-61
2021/03/24 02:31:04;;;;;;;23.92;10.45;;;;;;;-1.75;83.71;97485.13;4981886;28;20038;-63
2021/03/24 02:33:34;;;;;;;24.50;10.85;;;;;;;-1.68;85.33;97482.97;4981666;28;20042;-62
2021/03/24 02:36:04;;;;;;;19.10;10.13;;;;;;;-1.51;85.59;97482.72;4961100;28;20096;-63
2021/03/24 02:38:33;;;;;;;19.33;9.73;;;;;;;-1.25;85.31;97483.50;4957536;28;20054;-61
2021/03/24 02:41:00;;;;;;;19.67;10.20;;;;;;;-1.28;84.83;97481.34;4982847;28;20092;-62
2021/03/24 02:43:26;;;;;;;26.13;10.70;;;;;;;-1.18;84.55;97472.47;4974279;28;20294;-61
2021/03/24 02:45:54;;;;;;;20.08;9.80;;;;;;;-1.21;83.71;97481.06;4965067;28;20053;-60
2021/03/24 02:48:29;;;;;;;25.50;10.40;;;;;;;-1.35;83.74;97473.56;4983908;28;20049;-63
2021/03/24 02:50:57;;;;;;;19.90;10.15;;;;;;;-1.27;83.81;97482.16;4991194;28;20495;-64
2021/03/24 02:53:25;;;;;;;22.15;10.02;;;;;;;-1.39;83.86;97479.75;4979944;28;20054;-62
2021/03/24 02:55:53;;;;;;;24.13;10.68;;;;;;;-1.39;84.27;97477.06;4981811;28;20043;-62
2021/03/24 02:58:18;;;;;;;21.45;10.20;;;;;;;-1.38;84.19;97478.69;4976100;28;20069;-62
2021/03/24 03:00:46;;;;;;;19.52;9.85;;;;;;;-1.43;84.58;97476.00;4964781;28;20070;-62
2021/03/24 03:03:17;;;;;;;22.95;10.90;;;;;;;-1.52;84.51;97478.41;4977822;28;20069;-62
2021/03/24 03:05:44;;;;;;;25.15;10.38;;;;;;;-1.46;85.26;97473.84;4981840;28;20503;-61
2021/03/24 03:08:24;;;;;;;25.08;12.65;;;;;;;-1.53;84.89;97476.81;4977425;28;20048;-60
2021/03/24 03:10:53;;;;;;;21.75;10.15;;;;;;;-1.63;85.13;97482.19;4981903;28;20435;-62
2021/03/24 03:13:30;;;;;;;24.50;11.48;;;;;;;-1.84;84.55;97479.47;4976287;28;20042;-60
2021/03/24 03:16:05;;;;;;;22.83;10.90;;;;;;;-2.08;84.58;97486.44;4966161;28;20046;-62
2021/03/24 03:18:40;;;;;;;24.23;10.02;;;;;;;-2.34;85.20;97484.47;4963900;28;20109;-62
2021/03/24 03:21:12;;;;;;;22.40;11.07;;;;;;;-2.18;86.84;97485.34;4977593;28;20046;-62
2021/03/24 03:23:39;;;;;;;26.92;10.75;;;;;;;-2.07;87.25;97482.66;4981323;28;20043;-61
2021/03/24 03:26:09;;;;;;;26.83;11.18;;;;;;;-1.96;87.57;97497.72;4976825;28;20057;-62
2021/03/24 03:28:37;;;;;;;19.80;10.93;;;;;;;-1.83;87.21;97496.41;4981806;28;20069;-58
2021/03/24 03:31:05;;;;;;;26.70;11.50;;;;;;;-1.78;86.40;97485.66;4979470;28;20070;-63
2021/03/24 03:33:36;;;;;;;28.08;12.02;;;;;;;-1.85;86.17;97493.19;4977566;28;20105;-61
2021/03/24 03:36:02;;;;;;;23.13;11.30;;;;;;;-1.86;86.03;97488.88;4983750;28;20053;-61
2021/03/24 03:38:30;;;;;;;22.95;10.75;;;;;;;-1.76;86.07;97478.16;4979033;28;20112;-59
2021/03/24 03:40:58;;;;;;;25.38;10.93;;;;;;;-1.79;85.88;97486.72;4981580;28;20091;-61
2021/03/24 03:43:26;;;;;;;22.60;10.65;;;;;;;-2.04;84.81;97484.81;4975970;28;20073;-62
2021/03/24 03:45:53;;;;;;;22.20;10.25;;;;;;;-2.36;85.81;97481.25;4981286;28;20046;-62
2021/03/24 03:48:20;;;;;;;27.05;13.13;;;;;;;-2.56;87.71;97486.53;4977176;28;20042;-60
2021/03/24 03:50:49;;;;;;;30.30;13.70;;;;;;;-2.92;90.19;97481.00;4981137;28;20046;-59
2021/03/24 03:53:24;;;;;;;28.33;12.55;;;;;;;-3.25;91.98;97484.84;4959552;28;20109;-60
2021/03/24 03:56:01;;;;;;;26.15;13.13;;;;;;;-3.35;92.87;97489.06;4986182;28;20042;-61
2021/03/24 03:58:43;;;;;;;31.60;13.60;;;;;;;-3.34;93.26;97484.50;4982333;28;20188;-58
2021/03/24 04:01:16;;;;;;;31.75;14.25;;;;;;;-3.32;93.11;97480.50;4980775;28;20088;-60
2021/03/24 04:03:57;;;;;;;28.23;12.93;;;;;;;-3.15;93.30;97483.03;4985233;28;20046;-60
2021/03/24 04:06:34;;;;;;;37.03;13.25;;;;;;;-2.81;93.71;97481.88;4983851;28;20053;-61
2021/03/24 04:09:00;;;;;;;34.60;12.95;;;;;;;-2.55;93.18;97477.44;4972851;28;20064;-61
2021/03/24 04:11:30;;;;;;;28.85;13.30;;;;;;;-2.49;92.10;97479.06;4988318;28;20446;-61
2021/03/24 04:13:59;;;;;;;29.88;12.65;;;;;;;-2.45;91.89;97476.66;5004042;28;20049;-60
2021/03/24 04:16:26;;;;;;;;;;;;;;;-2.35;91.24;97484.75;4991031;28;20455;-61
2021/03/24 04:19:05;;;;;;;34.78;11.95;;;;;;;-2.25;89.98;97483.94;4965526;28;19961;-61
2021/03/24 04:21:35;;;;;;;26.38;10.90;;;;;;;-2.28;89.40;97493.34;4984783;28;20042;-61
2021/03/24 04:24:07;;;;;;;20.85;10.82;;;;;;;-2.23;88.22;97492.53;4967634;28;20447;-58
2021/03/24 04:26:43;;;;;;;27.27;11.20;;;;;;;-2.19;88.19;97491.75;4984541;28;20047;-61
2021/03/24 04:29:22;;;;;;;25.08;11.23;;;;;;;-2.39;87.41;97497.88;4971468;28;20042;-61
2021/03/24 04:31:52;;;;;;;26.30;11.02;;;;;;;-2.69;86.44;97499.34;4984479;28;20487;-60
2021/03/24 04:34:19;;;;;;;25.50;12.35;;;;;;;-2.74;86.44;97490.47;4963279;28;20562;-60
2021/03/24 04:36:50;;;;;;;21.15;10.63;;;;;;;-2.59;87.88;97495.09;4976563;28;20046;-60
2021/03/24 04:39:24;;;;;;;26.85;10.93;;;;;;;-2.71;87.26;97498.00;4954894;28;20047;-61
2021/03/24 04:41:53;;;;;;;33.53;11.88;;;;;;;-2.71;87.89;97501.50;4984602;28;20049;-62
2021/03/24 04:44:25;;;;;;;22.58;11.88;;;;;;;-2.48;88.34;97504.00;4983523;28;20457;-59
2021/03/24 04:46:55;;;;;;;25.63;11.32;;;;;;;-2.47;88.25;97503.72;4982209;28;20046;-60
2021/03/24 04:49:25;;;;;;;;;;;;;;;-2.46;88.08;97500.00;4968241;28;20046;-60
2021/03/24 04:51:54;;;;;;;19.95;10.68;;;;;;;-2.52;87.97;97501.03;4982207;28;19921;-59
2021/03/24 04:54:39;;;;;;;26.70;11.50;;;;;;;-2.57;88.14;97506.41;4978132;28;20462;-59
2021/03/24 04:57:07;;;;;;;25.27;11.25;;;;;;;-3.17;89.03;97509.28;4974316;28;20046;-60
2021/03/24 04:59:38;;;;;;;30.02;13.07;;;;;;;-3.29;89.92;97503.31;4978198;28;20463;-61
2021/03/24 05:02:09;;;;;;;32.80;13.35;;;;;;;-3.49;91.11;97498.63;4954665;28;20047;-62
2021/03/24 05:04:50;;;;;;;29.52;11.23;;;;;;;-3.54;92.17;97503.91;4972157;28;20081;-62
2021/03/24 05:07:29;;;;;;;27.75;12.63;;;;;;;-3.60;91.91;97505.75;4968306;28;20656;-61
2021/03/24 05:09:54;;;;;;;27.50;12.10;;;;;;;-3.54;91.68;97504.72;4975638;28;20054;-60
2021/03/24 05:12:27;;;;;;;25.90;11.82;;;;;;;-3.47;91.18;97499.97;4970379;28;20444;-61
2021/03/24 05:15:08;;;;;;;26.92;12.50;;;;;;;-3.32;91.94;97501.94;4979361;28;20137;-61
2021/03/24 05:17:35;;;;;;;27.95;12.00;;;;;;;-3.31;90.99;97508.91;4972209;28;20525;-62
2021/03/24 05:20:17;;;;;;;32.38;12.45;;;;;;;-3.37;90.40;97509.13;4952914;28;20042;-62
2021/03/24 05:22:44;;;;;;;28.35;12.77;;;;;;;-3.42;91.22;97519.81;4973761;28;20104;-61
2021/03/24 05:25:17;;;;;;;26.00;13.10;;;;;;;-3.38;91.13;97519.03;4971814;28;20042;-59
2021/03/24 05:27:46;;;;;;;28.63;11.40;;;;;;;-3.13;90.96;97522.97;4974261;28;20053;-62
2021/03/24 05:30:34;;;;;;;25.38;11.52;;;;;;;-2.76;90.85;97528.28;4978228;28;20489;-61
2021/03/24 05:33:04;;;;;;;28.05;12.13;;;;;;;-2.29;90.64;97528.50;4984234;28;20399;-62
2021/03/24 05:35:40;;;;;;;24.35;11.02;;;;;;;-2.20;86.26;97522.34;4982578;28;20042;-60
2021/03/24 05:38:13;;;;;;;22.95;10.57;;;;;;;-2.12;86.58;97518.34;4975787;28;20046;-60
2021/03/24 05:40:58;;;;;;;22.63;10.75;;;;;;;-1.40;86.03;97513.09;4974539;28;20042;-58
2021/03/24 05:43:23;;;;;;;24.30;11.10;;;;;;;-0.51;82.93;97512.66;4972101;28;20073;-60
2021/03/24 05:46:05;;;;;;;20.27;10.45;;;;;;;-0.36;79.58;97509.91;4983987;28;20426;-60
2021/03/24 05:48:49;;;;;;;21.80;10.40;;;;;;;0.17;78.30;97512.84;4978746;28;20117;-62
2021/03/24 05:51:53;;;;;;;18.92;9.40;;;;;;;1.59;74.37;97518.34;4968652;28;20046;-61
2021/03/24 05:54:28;;;;;;;20.30;9.15;;;;;;;2.97;66.28;97508.25;4959903;28;20043;-61
2021/03/24 05:57:38;;;;;;;22.90;8.93;;;;;;;3.94;62.21;97502.88;4969298;28;20053;-61
2021/03/24 06:00:25;;;;;;;15.98;7.95;;;;;;;3.43;61.11;97510.09;4966313;28;20074;-63
2021/03/24 06:03:15;;;;;;;14.48;8.00;;;;;;;3.45;60.49;97504.38;4981591;28;20411;-62
2021/03/24 06:05:56;;;;;;;17.23;8.80;;;;;;;4.28;59.80;97506.22;4981340;28;20053;-62
2021/03/24 06:08:24;;;;;;;18.85;8.82;;;;;;;4.87;57.73;97506.97;4976487;28;20108;-60
2021/03/24 06:11:02;;;;;;;17.40;8.48;;;;;;;5.46;56.75;97508.75;4973294;28;20145;-61
2021/03/24 06:14:04;;;;;;;19.60;9.10;;;;;;;2.74;65.63;97515.41;4957571;28;20042;-61
2021/03/24 06:16:48;;;;;;;19.05;9.38;;;;;;;0.65;73.13;97512.25;4976522;28;20782;-61
2021/03/24 06:19:22;;;;;;;47.80;22.75;;;;;;;1.11;73.74;97522.59;4966379;28;20078;-62
2021/03/24 06:22:10;;;;;;;25.10;13.13;;;;;;;1.25;72.98;97513.84;4988819;28;20069;-61
2021/03/24 06:25:01;;;;;;;21.42;12.40;;;;;;;1.47;71.40;97514.13;4966469;28;20348;-60
2021/03/24 06:28:05;;;;;;;20.10;9.15;;;;;;;3.15;66.83;97503.88;4953921;28;20058;-60
2021/03/24 06:30:30;;;;;;;16.80;8.13;;;;;;;5.20;59.15;97506.69;4979086;28;20045;-59
2021/03/24 06:33:15;;;;;;;19.77;8.98;;;;;;;7.30;52.46;97509.69;4976540;28;20050;-58
2021/03/24 06:36:02;;;;;;;17.60;8.30;;;;;;;8.79;48.39;97511.25;4958955;28;20662;-62
2021/03/24 06:38:52;;;;;;;18.70;7.70;;;;;;;9.49;44.08;97499.63;4948811;28;20051;-61
2021/03/24 06:42:00;;;;;;;13.68;7.68;;;;;;;10.22;43.66;97500.72;4955815;28;20038;-62
2021/03/24 06:44:31;;;;;;;20.23;8.27;;;;;;;8.61;47.32;97509.81;4941902;28;20051;-63
2021/03/24 06:47:02;;;;;;;21.63;8.75;;;;;;;7.80;49.29;97515.28;4975007;28;20077;-61
2021/03/24 06:49:35;;;;;;;19.35;8.85;;;;;;;7.93;49.63;97516.16;4976021;28;20047;-60
2021/03/24 06:52:22;;;;;;;16.30;8.73;;;;;;;7.87;49.80;97517.50;4992508;28;20045;-62
2021/03/24 06:55:23;;;;;;;18.48;9.10;;;;;;;7.66;51.68;97515.47;4978099;28;20050;-61
2021/03/24 06:57:57;;;;;;;20.05;10.02;;;;;;;7.91;51.44;97518.44;4970899;28;20082;-61
2021/03/24 07:00:49;;;;;;;19.27;9.63;;;;;;;7.58;50.97;97519.06;4965615;28;20128;-60
2021/03/24 07:03:34;;;;;;;16.90;9.30;;;;;;;8.60;49.36;97530.03;4965649;28;20043;-61
2021/03/24 07:06:34;;;;;;;17.60;9.57;;;;;;;10.64;44.68;97527.84;4975944;28;20038;-62
2021/03/24 07:09:09;;;;;;;19.60;9.27;;;;;;;10.00;45.34;97531.34;4971913;28;20049;-62
2021/03/24 07:11:59;;;;;;;18.15;9.70;;;;;;;10.09;45.51;97534.75;4953048;28;20543;-61
2021/03/24 07:14:36;;;;;;;18.73;8.73;;;;;;;10.92;44.34;97532.56;4945526;28;20062;-60
2021/03/24 07:17:28;;;;;;;18.85;9.90;;;;;;;11.31;42.97;97532.84;4957672;28;20524;-62
2021/03/24 07:20:23;;;;;;;15.10;8.38;;;;;;;11.69;42.05;97536.94;4975000;28;20054;-61
2021/03/24 07:23:06;;;;;;;14.27;8.13;;;;;;;11.23;43.31;97536.53;4969703;28;20042;-62
2021/03/24 07:25:38;;;;;;;22.02;9.05;;;;;;;11.56;41.61;97543.66;4976835;28;20038;-63
2021/03/24 07:28:09;;;;;;;19.98;9.40;;;;;;;7.22;53.06;97544.00;4952469;28;20044;-63
2021/03/24 07:30:37;;;;;;;19.50;9.80;;;;;;;7.66;53.84;97542.75;4971854;28;20058;-63
2021/03/24 07:33:23;;;;;;;19.73;8.93;;;;;;;7.98;52.14;97534.28;4970807;28;20038;-63
2021/03/24 07:36:04;;;;;;;17.73;9.02;;;;;;;7.25;56.45;97537.91;4970891;28;20061;-62
2021/03/24 07:39:07;;;;;;;18.52;9.60;;;;;;;7.03;55.53;97536.19;4948616;28;20074;-61
2021/03/24 07:42:07;;;;;;;20.50;9.23;;;;;;;9.27;51.83;97538.28;4979619;28;20081;-62
2021/03/24 07:45:04;;;;;;;17.02;9.00;;;;;;;8.77;51.48;97535.38;4956950;28;20047;-62
2021/03/24 07:47:42;;;;;;;19.77;9.82;;;;;;;7.34;56.30;97535.97;4977731;28;20046;-62
2021/03/24 07:50:29;;;;;;;17.05;8.88;;;;;;;8.79;52.83;97544.03;4968729;28;20129;-62
2021/03/24 07:53:31;;;;;;;16.55;8.70;;;;;;;11.89;45.80;97534.31;4980592;28;20065;-63
2021/03/24 07:56:20;;;;;;;17.45;8.73;;;;;;;12.34;41.68;97533.03;4972600;28;20130;-61
2021/03/24 07:59:11;;;;;;;15.45;8.20;;;;;;;13.90;39.92;97533.75;4976533;28;20105;-63
2021/03/24 08:01:55;;;;;;;18.08;9.70;;;;;;;13.90;39.99;97533.75;4975440;28;20073;-62
2021/03/24 08:04:36;;;;;;;13.20;8.10;;;;;;;15.84;36.05;97527.97;4967956;28;20066;-63
2021/03/24 08:07:29;;;;;;;18.55;9.05;;;;;;;14.23;37.60;97534.28;4978949;28;20057;-63
2021/03/24 08:10:26;;;;;;;18.25;10.57;;;;;;;13.30;40.78;97536.97;4979286;28;20570;-61
2021/03/24 08:13:29;;;;;;;18.65;9.82;;;;;;;14.57;38.31;97532.41;4978137;28;20141;-60
2021/03/24 08:16:07;;;;;;;15.27;9.02;;;;;;;15.05;37.45;97537.38;4961765;28;20054;-63
2021/03/24 08:18:32;;;;;;;14.30;9.40;;;;;;;14.36;37.14;97545.88;4962353;28;20047;-62
2021/03/24 08:21:06;;;;;;;19.10;9.10;;;;;;;14.76;37.81;97542.53;4966549;28;20050;-62
2021/03/24 08:23:38;;;;;;;15.98;9.30;;;;;;;15.47;35.16;97537.06;4967786;28;20050;-61
2021/03/24 08:26:42;;;;;;;18.13;8.48;;;;;;;14.99;36.29;97534.16;4959988;28;20058;-59
2021/03/24 08:29:16;;;;;;;13.35;8.02;;;;;;;15.45;35.96;97536.66;4953648;28;20043;-64
2021/03/24 08:32:14;;;;;;;17.15;9.40;;;;;;;13.62;39.03;97531.31;4961796;28;20090;-62
2021/03/24 08:34:40;;;;;;;21.17;10.05;;;;;;;14.79;37.53;97532.72;4961035;28;20057;-62
2021/03/24 08:37:08;;;;;;;16.23;10.15;;;;;;;13.19;40.61;97527.75;4953678;28;20046;-62
2021/03/24 08:39:55;;;;;;;15.68;9.27;;;;;;;11.23;44.54;97525.56;4962659;28;20142;-62
2021/03/24 08:42:48;;;;;;;17.38;9.60;;;;;;;14.01;39.39;97525.69;4959560;28;20045;-62
2021/03/24 08:45:33;;;;;;;23.73;11.07;;;;;;;10.83;46.06;97538.16;4953913;28;20615;-61
2021/03/24 08:48:05;;;;;;;14.45;8.10;;;;;;;13.23;41.55;97530.56;4982202;28;20039;-60
2021/03/24 08:50:37;;;;;;;19.17;9.20;;;;;;;14.16;39.81;97523.94;4987249;28;20146;-62
2021/03/24 08:53:40;;;;;;;13.55;8.25;;;;;;;14.92;37.84;97520.28;4979645;28;20042;-63
2021/03/24 08:56:40;;;;;;;19.50;9.50;;;;;;;15.73;35.85;97526.28;4965460;28;20089;-63
2021/03/24 08:59:11;;;;;;;18.38;8.65;;;;;;;13.77;40.29;97521.34;4975820;28;20034;-62
2021/03/24 09:01:52;;;;;;;18.13;9.57;;;;;;;13.52;41.32;97523.66;4984880;28;20049;-63
2021/03/24 09:04:38;;;;;;;15.43;8.38;;;;;;;15.08;37.84;97520.88;4984485;28;20197;-63
2021/03/24 09:07:04;;;;;;;14.90;8.45;;;;;;;14.29;39.28;97513.50;4986620;28;20038;-63
2021/03/24 09:10:00;;;;;;;15.90;9.10;;;;;;;13.69;40.46;97514.91;4977962;28;20059;-62
2021/03/24 09:12:31;;;;;;;18.70;9.30;;;;;;;13.95;40.80;97508.69;4959329;28;20038;-62
2021/03/24 09:15:00;;;;;;;17.13;8.85;;;;;;;13.64;39.48;97512.47;4959525;28;20071;-63
2021/03/24 09:17:44;;;;;;;19.67;10.00;;;;;;;14.81;38.35;97511.88;4969257;28;20819;-63
2021/03/24 09:20:24;;;;;;;18.52;9.18;;;;;;;15.46;36.95;97516.16;4961009;28;20444;-61
2021/03/24 09:22:52;;;;;;;17.23;9.43;;;;;;;15.10;37.28;97510.25;4983523;28;20105;-60
2021/03/24 09:25:26;;;;;;;19.42;9.52;;;;;;;13.36;40.10;97510.81;4979036;28;20043;-62
2021/03/24 09:30:44;;;;;;;18.25;8.63;;;;;;;15.71;36.03;97512.06;5013771;23;20050;-64
2021/03/24 09:33:45;;;;;;;18.90;9.48;;;;;;;11.21;43.79;97516.88;4974286;28;20053;-63
2021/03/24 09:36:43;;;;;;;15.57;9.00;;;;;;;13.82;41.34;97506.47;4991670;28;20137;-63
2021/03/24 09:39:29;;;;;;;19.27;8.77;;;;;;;15.57;36.54;97505.22;4986124;28;20465;-63
2021/03/24 09:41:58;;;;;;;18.80;8.85;;;;;;;16.34;34.95;97496.38;4996385;28;20042;-66
2021/03/24 09:44:57;;;;;;;15.73;8.90;;;;;;;16.22;35.01;97503.00;4997843;28;20869;-63
2021/03/24 09:47:31;;;;;;;19.52;9.10;;;;;;;16.32;35.30;97501.50;4993276;28;20049;-63
2021/03/24 09:50:12;;;;;;;22.98;9.93;;;;;;;16.74;35.05;97505.69;5003417;28;20121;-63
2021/03/24 09:52:41;;;;;;;20.98;9.13;;;;;;;16.82;33.50;97496.25;5002329;28;20081;-63
2021/03/24 09:55:39;;;;;;;16.23;9.07;;;;;;;16.94;33.18;97492.34;4995928;28;20049;-63
2021/03/24 09:58:29;;;;;;;16.85;9.52;;;;;;;16.66;33.43;97493.81;4984546;28;20046;-62
2021/03/24 10:00:54;;;;;;;18.77;9.70;;;;;;;15.63;34.63;97495.41;5002220;28;20044;-62
2021/03/24 10:03:38;;;;;;;18.52;9.65;;;;;;;14.58;38.39;97497.38;4991163;28;20401;-63
2021/03/24 10:06:18;;;;;;;17.17;9.10;;;;;;;15.63;35.98;97489.13;4987789;28;20107;-62
2021/03/24 10:08:53;;;;;;;18.05;9.27;;;;;;;14.86;37.21;97488.69;5002651;28;20058;-64
2021/03/24 10:11:24;;;;;;;17.23;10.15;;;;;;;15.48;37.96;97493.69;4998585;28;20096;-62
2021/03/24 10:14:14;;;;;;;15.18;9.65;;;;;;;15.17;37.85;97487.47;4999330;28;20068;-64
2021/03/24 10:16:45;;;;;;;20.05;9.90;;;;;;;15.26;37.11;97492.69;4999573;28;20554;-63
2021/03/24 10:19:23;;;;;;;18.48;9.35;;;;;;;15.34;37.34;97482.50;4988838;28;20046;-63
2021/03/24 10:22:02;;;;;;;20.75;10.45;;;;;;;14.70;38.41;97481.41;5003252;28;20042;-64
2021/03/24 10:24:42;;;;;;;16.65;9.98;;;;;;;13.95;40.41;97481.13;4999281;28;20045;-62
2021/03/24 10:27:11;;;;;;;17.48;8.82;;;;;;;13.75;40.65;97479.63;4996516;28;20687;-61
2021/03/24 10:29:41;;;;;;;26.58;14.77;;;;;;;13.84;40.58;97471.88;5003778;28;20045;-63
2021/03/24 10:32:37;;;;;;;17.25;10.23;;;;;;;14.05;40.63;97473.41;4995783;28;20042;-63
2021/03/24 10:35:20;;;;;;;20.13;10.00;;;;;;;14.45;39.66;97474.75;4993254;28;20065;-60
2021/03/24 10:38:10;;;;;;;18.65;10.00;;;;;;;14.64;38.42;97477.41;5004338;28;20046;-62
2021/03/24 10:40:43;;;;;;;18.75;9.02;;;;;;;15.16;37.98;97474.84;5010312;28;20048;-64
2021/03/24 10:43:33;;;;;;;19.65;9.38;;;;;;;15.33;38.57;97472.66;5002355;28;20046;-63
2021/03/24 10:46:37;;;;;;;17.33;8.90;;;;;;;14.46;38.94;97470.84;5006226;28;20038;-62
2021/03/24 10:49:08;;;;;;;25.88;10.35;;;;;;;14.88;38.61;97462.31;4995651;28;20049;-61
2021/03/24 10:51:49;;;;;;;18.75;9.20;;;;;;;13.91;39.30;97452.72;4982114;28;20061;-64
2021/03/24 10:54:28;;;;;;;20.42;9.15;;;;;;;14.99;37.80;97456.13;4998987;28;20034;-65
2021/03/24 10:57:12;;;;;;;18.33;10.30;;;;;;;15.04;38.18;97451.06;5005909;28;20478;-64
2021/03/24 10:59:37;;;;;;;16.58;9.25;;;;;;;14.88;37.23;97450.50;4990177;28;20042;-64
2021/03/24 11:02:14;;;;;;;15.77;9.13;;;;;;;14.80;38.67;97443.31;5000636;28;20053;-61
2021/03/24 11:04:46;;;;;;;15.90;8.90;;;;;;;14.96;37.97;97446.63;5000860;28;20036;-63
2021/03/24 11:07:33;;;;;;;16.80;8.60;;;;;;;14.57;38.83;97446.13;4996608;28;20042;-64
2021/03/24 11:10:19;;;;;;;15.85;9.25;;;;;;;14.85;38.26;97448.47;4999143;28;20038;-64
2021/03/24 11:12:48;;;;;;;16.65;8.98;;;;;;;13.52;40.93;97436.41;5004120;28;20046;-63
2021/03/24 11:15:46;;;;;;;15.45;8.65;;;;;;;13.91;40.48;97438.97;4996251;28;20034;-64
2021/03/24 11:18:17;;;;;;;26.17;10.60;;;;;;;13.79;40.27;97439.16;4984010;28;20074;-63
2021/03/24 11:20:43;;;;;;;17.95;9.93;;;;;;;12.21;42.65;97431.53;5002113;28;20048;-63
2021/03/24 11:23:14;;;;;;;18.38;10.10;;;;;;;13.07;41.60;97424.19;4995104;28;20382;-63
2021/03/24 11:25:44;;;;;;;21.33;10.45;;;;;;;13.41;41.27;97424.41;5001759;28;20070;-64
2021/03/24 11:28:28;;;;;;;23.92;8.70;;;;;;;13.64;39.59;97416.13;4994495;28;20450;-65
2021/03/24 11:31:05;;;;;;;16.77;8.35;;;;;;;13.66;39.40;97408.28;5001472;28;20045;-63
2021/03/24 11:33:53;;;;;;;15.70;8.48;;;;;;;13.67;40.31;97409.09;5000989;28;20528;-63
2021/03/24 11:36:23;;;;;;;16.70;8.50;;;;;;;13.68;38.89;97407.94;5002428;28;20104;-63
2021/03/24 11:39:06;;;;;;;18.98;8.68;;;;;;;14.02;39.30;97399.78;5013145;28;20068;-63
2021/03/24 11:41:35;;;;;;;17.73;8.70;;;;;;;14.76;38.18;97406.63;5003870;28;20045;-62
2021/03/24 11:44:06;;;;;;;18.52;8.35;;;;;;;15.44;36.54;97396.25;5003154;28;20398;-65
2021/03/24 11:46:43;;;;;;;17.02;8.63;;;;;;;15.70;36.43;97388.94;4999461;28;20050;-65
2021/03/24 11:49:33;;;;;;;16.48;8.13;;;;;;;15.46;36.15;97386.41;4995793;28;20137;-65
2021/03/24 11:52:33;;;;;;;19.23;9.32;;;;;;;15.37;36.11;97396.97;5001768;28;20065;-63
2021/03/24 11:55:26;;;;;;;16.33;8.25;;;;;;;14.38;37.93;97397.50;5002039;28;20044;-65
2021/03/24 11:58:05;;;;;;;17.02;8.95;;;;;;;14.50;37.89;97389.78;4999340;28;20602;-62
2021/03/24 12:00:42;;;;;;;16.60;9.15;;;;;;;14.76;37.26;97385.34;4998738;28;20042;-63
2021/03/24 12:03:45;;;;;;;16.05;8.80;;;;;;;14.79;37.01;97381.06;4996693;28;20600;-64
2021/03/24 12:06:48;;;;;;;18.48;8.93;;;;;;;14.31;38.21;97381.66;4984415;28;20042;-63
2021/03/24 12:09:21;;;;;;;19.50;8.45;;;;;;;13.35;40.03;97374.41;4996930;28;20084;-65